createdAt,value
2022-10-12T00:00:40.640Z,45.30
2022-10-12T00:03:08.590Z,42.47
2022-10-12T00:05:36.692Z,50.37
2022-10-12T00:08:06.070Z,42.97
2022-10-12T00:10:34.120Z,51.67
2022-10-12T00:13:02.098Z,35.93
2022-10-12T00:15:30.039Z,40.20
2022-10-12T00:17:57.988Z,39.17
2022-10-12T00:20:25.915Z,36.70
2022-10-12T00:22:53.836Z,33.63
2022-10-12T00:25:23.131Z,35.97
2022-10-12T00:27:51.067Z,30.57
2022-10-12T00:30:19.208Z,34.87
2022-10-12T00:32:47.204Z,32.63
2022-10-12T00:35:15.300Z,33.67
2022-10-12T00:37:43.233Z,36.60
2022-10-12T00:40:12.921Z,38.97
2022-10-12T00:42:42.241Z,44.83
2022-10-12T00:45:11.237Z,44.53
2022-10-12T00:47:42.434Z,44.33
2022-10-12T00:50:17.028Z,41.67
2022-10-12T00:52:48.802Z,49.13
2022-10-12T00:55:19.947Z,50.30
2022-10-12T00:57:52.481Z,55.17
2022-10-12T01:00:21.197Z,50.33
2022-10-12T01:02:51.265Z,51.60
2022-10-12T01:05:20.701Z,55.07
2022-10-12T01:07:48.659Z,65.57
2022-10-12T01:10:16.650Z,61.90
2022-10-12T01:12:46.097Z,54.23
2022-10-12T01:15:15.512Z,64.73
2022-10-12T01:17:54.556Z,62.00
2022-10-12T01:20:46.654Z,62.17
2022-10-12T01:23:44.042Z,62.30
2022-10-12T01:26:50.305Z,60.07
2022-10-12T01:29:40.387Z,60.50
2022-10-12T01:32:18.880Z,61.27
2022-10-12T01:34:54.051Z,53.87
2022-10-12T01:37:30.454Z,55.67
2022-10-12T01:40:05.460Z,59.87
2022-10-12T01:42:38.210Z,54.23
2022-10-12T01:45:08.891Z,63.90
2022-10-12T01:47:40.313Z,59.83
2022-10-12T01:50:12.144Z,53.20
2022-10-12T01:52:46.854Z,54.37
2022-10-12T01:55:38.288Z,66.77
2022-10-12T01:58:21.651Z,68.13
2022-10-12T02:00:57.014Z,64.07
2022-10-12T02:03:33.152Z,63.03
2022-10-12T02:06:04.654Z,71.37
2022-10-12T02:08:36.881Z,77.77
2022-10-12T02:11:08.800Z,72.90
2022-10-12T02:13:40.974Z,81.97
2022-10-12T02:16:11.679Z,74.67
2022-10-12T02:18:45.636Z,82.03
2022-10-12T02:21:17.256Z,85.27
2022-10-12T02:23:48.739Z,77.70
2022-10-12T02:26:18.477Z,76.40
2022-10-12T02:28:48.557Z,70.87
2022-10-12T02:31:22.913Z,65.43
2022-10-12T02:33:59.881Z,67.17
2022-10-12T02:36:36.160Z,65.47
2022-10-12T02:39:07.832Z,64.00
2022-10-12T02:41:41.910Z,62.57
2022-10-12T02:44:13.234Z,69.37
2022-10-12T02:46:42.407Z,63.27
2022-10-12T02:49:13.881Z,63.10
2022-10-12T02:51:42.777Z,67.40
2022-10-12T02:54:10.935Z,66.50
2022-10-12T02:56:45.473Z,69.27
2022-10-12T02:59:13.537Z,64.07
2022-10-12T03:01:41.968Z,69.33
2022-10-12T03:04:11.625Z,65.37
2022-10-12T03:06:39.664Z,68.47
2022-10-12T03:09:07.876Z,65.80
2022-10-12T03:11:37.643Z,64.47
2022-10-12T03:14:06.322Z,61.53
2022-10-12T03:16:34.254Z,69.87
2022-10-12T03:19:02.178Z,60.17
2022-10-12T03:21:31.468Z,53.40
2022-10-12T03:23:59.488Z,72.43
2022-10-12T03:26:27.483Z,78.20
2022-10-12T03:28:55.535Z,74.87
2022-10-12T03:31:23.575Z,83.77
2022-10-12T03:33:51.524Z,91.37
2022-10-12T03:36:19.621Z,85.10
2022-10-12T03:38:48.944Z,89.00
2022-10-12T03:41:16.858Z,87.47
2022-10-12T03:43:44.794Z,92.13
2022-10-12T03:46:13.869Z,84.30
2022-10-12T03:48:42.089Z,79.10
2022-10-12T03:51:10.018Z,77.43
2022-10-12T03:53:41.816Z,65.03
2022-10-12T03:56:14.461Z,63.07
2022-10-12T03:58:42.427Z,64.40
2022-10-12T04:01:10.385Z,69.80
2022-10-12T04:03:38.344Z,70.57
2022-10-12T04:06:06.674Z,78.03
2022-10-12T04:08:34.664Z,74.20
2022-10-12T04:11:02.599Z,70.03
2022-10-12T04:13:31.896Z,68.97
2022-10-12T04:16:03.315Z,70.07
2022-10-12T04:18:31.343Z,70.00
2022-10-12T04:20:59.870Z,70.53
2022-10-12T04:23:27.954Z,77.93
2022-10-12T04:25:55.910Z,74.33
2022-10-12T04:28:23.874Z,84.47
2022-10-12T04:30:53.179Z,78.40
2022-10-12T04:33:21.152Z,82.93
2022-10-12T04:35:49.162Z,85.37
2022-10-12T04:38:17.217Z,83.87
2022-10-12T04:40:47.938Z,80.77
2022-10-12T04:43:16.657Z,78.77
2022-10-12T04:45:44.912Z,77.53
2022-10-12T04:48:14.211Z,71.27
2022-10-12T04:50:42.132Z,82.13
2022-10-12T04:53:10.076Z,78.43
2022-10-12T04:55:38.913Z,69.93
2022-10-12T04:58:06.838Z,74.90
2022-10-12T05:00:34.816Z,77.67
2022-10-12T05:03:03.047Z,82.17
2022-10-12T05:05:32.351Z,88.07
2022-10-12T05:08:00.274Z,85.97
2022-10-12T05:10:28.234Z,86.00
2022-10-12T05:12:56.274Z,91.67
2022-10-12T05:15:24.230Z,85.53
2022-10-12T05:17:52.160Z,77.07
2022-10-12T05:20:20.130Z,77.17
2022-10-12T05:22:49.576Z,85.23
2022-10-12T05:25:19.401Z,84.57
2022-10-12T05:27:47.355Z,79.43
2022-10-12T05:30:15.559Z,92.40
2022-10-12T05:32:44.771Z,76.27
2022-10-12T05:35:12.750Z,74.50
2022-10-12T05:37:41.156Z,75.43
2022-10-12T05:40:11.742Z,79.17
2022-10-12T05:42:40.127Z,78.17
2022-10-12T05:45:09.381Z,86.20
2022-10-12T05:47:37.677Z,74.23
2022-10-12T05:50:06.938Z,82.67
2022-10-12T05:52:34.968Z,78.23
2022-10-12T05:55:03.120Z,79.30
2022-10-12T05:57:32.453Z,83.63
2022-10-12T06:00:00.408Z,69.47
2022-10-12T06:02:28.398Z,73.97
2022-10-12T06:04:56.348Z,79.40
2022-10-12T06:07:24.310Z,77.03
2022-10-12T06:09:52.247Z,73.93
2022-10-12T06:12:20.446Z,87.03
2022-10-12T06:14:49.815Z,92.57
2022-10-12T06:17:17.788Z,83.33
2022-10-12T06:19:45.753Z,95.20
2022-10-12T06:22:13.709Z,102.33
2022-10-12T06:24:41.645Z,106.77
2022-10-12T06:27:10.445Z,97.47
2022-10-12T06:29:38.356Z,83.37
2022-10-12T06:32:07.682Z,86.33
2022-10-12T06:34:35.612Z,71.27
2022-10-12T06:37:03.654Z,88.87
2022-10-12T06:39:31.830Z,83.60
2022-10-12T06:41:59.778Z,76.60
2022-10-12T06:44:27.732Z,77.33
2022-10-12T06:46:55.716Z,79.33
2022-10-12T06:49:25.054Z,85.60
2022-10-12T06:51:53.068Z,85.97
2022-10-12T06:54:21.048Z,80.97
2022-10-12T06:56:48.996Z,86.93
2022-10-12T06:59:18.951Z,85.57
2022-10-12T07:01:47.025Z,79.10
2022-10-12T07:04:15.085Z,83.70
2022-10-12T07:06:44.507Z,83.20
2022-10-12T07:09:12.440Z,86.13
2022-10-12T07:11:40.385Z,74.57
2022-10-12T07:14:08.362Z,81.43
2022-10-12T07:16:36.317Z,81.23
2022-10-12T07:19:04.244Z,95.27
2022-10-12T07:21:32.235Z,83.23
2022-10-12T07:24:01.524Z,77.87
2022-10-12T07:26:29.624Z,82.27
2022-10-12T07:28:57.578Z,78.43
2022-10-12T07:31:25.864Z,85.50
2022-10-12T07:33:53.813Z,84.63
2022-10-12T07:36:22.286Z,78.00
2022-10-12T07:38:52.432Z,81.93
2022-10-12T07:41:21.735Z,72.30
2022-10-12T07:43:49.668Z,81.83
2022-10-12T07:46:17.621Z,77.60
2022-10-12T07:48:50.259Z,77.03
2022-10-12T07:51:19.318Z,70.20
2022-10-12T07:53:47.402Z,71.47
2022-10-12T07:56:18.380Z,71.67
2022-10-12T07:58:51.908Z,66.27
2022-10-12T08:01:21.317Z,66.87
2022-10-12T08:03:49.987Z,67.47
2022-10-12T08:06:19.966Z,61.90
2022-10-12T08:08:48.871Z,55.80
2022-10-12T08:11:17.455Z,59.10
2022-10-12T08:13:46.283Z,51.40
2022-10-12T08:16:17.475Z,61.93
2022-10-12T08:18:45.613Z,56.73
2022-10-12T08:21:16.132Z,58.20
2022-10-12T08:23:45.220Z,75.13
2022-10-12T08:26:13.922Z,60.33
2022-10-12T08:28:42.498Z,66.90
2022-10-12T08:31:11.927Z,72.43
2022-10-12T08:33:41.282Z,69.50
2022-10-12T08:36:10.165Z,65.03
2022-10-12T08:38:39.419Z,65.03
2022-10-12T08:41:25.541Z,69.47
2022-10-12T08:44:11.764Z,54.47
2022-10-12T08:46:39.829Z,52.37
2022-10-12T08:49:15.860Z,51.10
2022-10-12T08:51:50.090Z,52.87
2022-10-12T08:54:21.089Z,53.57
2022-10-12T08:56:49.141Z,50.13
2022-10-12T08:59:19.491Z,33.57
2022-10-12T09:02:00.367Z,34.20
2022-10-12T09:04:45.879Z,32.70
2022-10-12T09:07:18.743Z,29.07
2022-10-12T09:09:59.300Z,29.03
2022-10-12T09:12:44.219Z,30.80
2022-10-12T09:15:17.493Z,29.07
2022-10-12T09:17:50.036Z,25.80
2022-10-12T09:20:22.226Z,25.97
2022-10-12T09:22:52.781Z,18.73
2022-10-12T09:25:25.258Z,24.60
2022-10-12T09:27:54.172Z,25.97
2022-10-12T09:30:24.025Z,26.03
2022-10-12T09:33:16.468Z,21.13
2022-10-12T09:35:47.212Z,25.10
2022-10-12T09:38:15.376Z,20.80
2022-10-12T09:40:43.760Z,30.13
2022-10-12T09:43:12.777Z,26.13
2022-10-12T09:45:41.201Z,27.50
2022-10-12T09:48:19.283Z,39.23
2022-10-12T09:50:51.725Z,25.50
2022-10-12T09:53:25.559Z,18.33
2022-10-12T09:55:59.695Z,19.33
2022-10-12T09:58:28.908Z,17.13
2022-10-12T10:01:19.115Z,14.27
2022-10-12T10:03:52.994Z,19.83
2022-10-12T10:06:26.356Z,19.37
2022-10-12T10:08:55.404Z,14.33
2022-10-12T10:11:26.821Z,15.40
2022-10-12T10:13:55.984Z,14.73
2022-10-12T10:16:26.835Z,12.77
2022-10-12T10:18:59.913Z,11.33
2022-10-12T10:21:33.272Z,11.33
2022-10-12T10:24:02.791Z,14.33
2022-10-12T10:26:50.950Z,14.33
2022-10-12T10:29:32.310Z,12.57
2022-10-12T10:32:24.054Z,11.47
2022-10-12T10:35:03.169Z,11.77
2022-10-12T10:37:34.132Z,10.87
2022-10-12T10:40:03.282Z,17.27
2022-10-12T10:42:33.765Z,17.20
2022-10-12T10:45:04.902Z,12.70
2022-10-12T10:47:35.476Z,10.67
2022-10-12T10:50:07.685Z,14.20
2022-10-12T10:52:38.489Z,16.00
2022-10-12T10:55:21.780Z,15.45
2022-10-12T10:57:58.532Z,20.10
2022-10-12T11:00:38.675Z,12.10
2022-10-12T11:03:14.123Z,17.88
2022-10-12T11:05:45.845Z,12.95
2022-10-12T11:08:20.841Z,13.77
2022-10-12T11:10:52.882Z,15.13
2022-10-12T11:13:25.394Z,13.83
2022-10-12T11:15:58.587Z,13.83
2022-10-12T11:18:34.599Z,17.60
2022-10-12T11:21:08.573Z,14.53
2022-10-12T11:23:45.320Z,14.10
2022-10-12T11:26:22.562Z,11.40
2022-10-12T11:28:51.044Z,13.77
2022-10-12T11:31:25.986Z,13.13
2022-10-12T11:33:57.667Z,15.38
2022-10-12T11:36:29.751Z,19.02
2022-10-12T11:39:07.101Z,16.85
2022-10-12T11:42:03.254Z,16.23
2022-10-12T11:44:42.136Z,11.18
2022-10-12T11:47:17.193Z,12.95
2022-10-12T11:49:51.517Z,15.55
2022-10-12T11:52:22.072Z,18.23
2022-10-12T11:55:04.676Z,13.38
2022-10-12T11:57:37.108Z,12.80
2022-10-12T12:00:08.415Z,21.40
2022-10-12T12:02:42.214Z,16.92
2022-10-12T12:05:16.486Z,19.42
2022-10-12T12:07:49.442Z,14.15
2022-10-12T12:11:03.266Z,15.48
2022-10-12T12:13:33.232Z,12.18
2022-10-12T12:16:23.124Z,10.57
2022-10-12T12:19:35.868Z,12.13
2022-10-12T12:22:19.263Z,10.07
2022-10-12T12:25:04.467Z,18.63
2022-10-12T12:27:39.360Z,12.73
2022-10-12T12:30:25.761Z,16.60
2022-10-12T12:32:57.011Z,9.65
2022-10-12T12:35:29.944Z,18.23
2022-10-12T12:38:17.489Z,16.53
2022-10-12T12:40:57.494Z,11.10
2022-10-12T12:44:02.063Z,10.55
2022-10-12T12:50:02.143Z,9.40
2022-10-12T12:52:33.655Z,11.02
2022-10-12T12:55:31.346Z,13.77
2022-10-12T12:58:13.151Z,8.47
2022-10-12T13:00:48.287Z,9.23
2022-10-12T13:04:00.431Z,7.60
2022-10-12T13:07:07.230Z,10.57
2022-10-12T13:09:50.819Z,10.82
2022-10-12T13:12:34.050Z,10.80
2022-10-12T13:15:25.283Z,10.35
2022-10-12T13:18:34.676Z,9.05
2022-10-12T13:21:07.984Z,10.95
2022-10-12T13:23:38.619Z,7.70
2022-10-12T13:26:09.413Z,12.25
2022-10-12T13:28:42.677Z,9.75
2022-10-12T13:31:19.219Z,7.82
2022-10-12T13:33:52.010Z,9.65
2022-10-12T13:36:24.139Z,11.75
2022-10-12T13:38:58.301Z,8.30
2022-10-12T13:41:30.434Z,10.88
2022-10-12T13:43:59.833Z,12.50
2022-10-12T13:46:40.735Z,11.05
2022-10-12T13:49:16.507Z,11.52
2022-10-12T13:51:46.073Z,13.15
2022-10-12T13:54:23.933Z,9.25
2022-10-12T13:56:55.814Z,9.75
2022-10-12T13:59:26.095Z,13.38
2022-10-12T14:01:56.803Z,16.10
2022-10-12T14:04:29.674Z,9.68
2022-10-12T14:07:02.001Z,10.70
2022-10-12T14:09:40.572Z,7.65
2022-10-12T14:12:09.474Z,8.30
2022-10-12T14:14:39.900Z,9.80
2022-10-12T14:17:08.396Z,7.75
2022-10-12T14:19:45.049Z,11.00
2022-10-12T14:22:14.074Z,13.68
2022-10-12T14:24:43.424Z,10.57
2022-10-12T14:27:23.783Z,10.63
2022-10-12T14:29:55.349Z,9.50
2022-10-12T14:32:42.432Z,10.68
2022-10-12T14:35:14.570Z,15.73
2022-10-12T14:37:42.591Z,10.13
2022-10-12T14:40:34.751Z,14.68
2022-10-12T14:43:05.696Z,11.43
2022-10-12T14:45:34.282Z,11.88
2022-10-12T14:48:03.417Z,12.95
2022-10-12T14:50:33.202Z,9.70
2022-10-12T14:53:04.842Z,8.25
2022-10-12T14:55:35.211Z,11.38
2022-10-12T14:58:03.774Z,9.40
2022-10-12T15:00:34.762Z,11.60
2022-10-12T15:03:03.503Z,19.30
2022-10-12T15:05:33.504Z,10.60
2022-10-12T15:08:07.214Z,7.40
2022-10-12T15:10:37.603Z,10.43
2022-10-12T15:13:05.680Z,15.50
2022-10-12T15:15:39.700Z,8.90
2022-10-12T15:18:08.165Z,10.87
2022-10-12T15:20:36.979Z,11.63
2022-10-12T15:23:05.708Z,13.30
2022-10-12T15:25:44.821Z,12.63
2022-10-12T15:28:12.891Z,11.60
2022-10-12T15:31:04.126Z,13.50
2022-10-12T15:33:29.556Z,15.50
2022-10-12T15:35:57.896Z,10.48
2022-10-12T15:38:25.871Z,13.77
2022-10-12T15:40:58.046Z,18.95
2022-10-12T15:43:26.260Z,9.55
2022-10-12T15:45:56.395Z,10.23
2022-10-12T15:48:24.454Z,9.75
2022-10-12T15:50:52.417Z,10.37
2022-10-12T15:53:24.029Z,11.93
2022-10-12T15:55:52.242Z,10.63
2022-10-12T15:58:21.830Z,14.13
2022-10-12T16:00:50.366Z,12.93
2022-10-12T16:03:25.519Z,12.13
2022-10-12T16:05:54.141Z,18.87
2022-10-12T16:08:22.124Z,20.33
2022-10-12T16:10:50.470Z,18.27
2022-10-12T16:13:18.866Z,20.87
2022-10-12T16:15:48.358Z,19.40
2022-10-12T16:18:16.832Z,19.07
2022-10-12T16:20:49.623Z,23.20
2022-10-12T16:23:23.074Z,22.63
2022-10-12T16:25:51.024Z,17.53
2022-10-12T16:28:20.082Z,19.97
2022-10-12T16:30:50.070Z,20.97
2022-10-12T16:33:18.546Z,18.70
2022-10-12T16:35:46.665Z,29.60
2022-10-12T16:38:15.289Z,28.47
2022-10-12T16:40:43.636Z,24.50
2022-10-12T16:43:12.152Z,34.17
2022-10-12T16:45:40.134Z,31.87
2022-10-12T16:48:09.536Z,37.63
2022-10-12T16:50:40.851Z,28.00
2022-10-12T16:53:09.618Z,38.33
2022-10-12T16:55:39.838Z,39.53
2022-10-12T16:58:07.912Z,33.87
2022-10-12T17:00:36.047Z,28.43
2022-10-12T17:03:04.122Z,28.87
2022-10-12T17:05:33.436Z,28.67
2022-10-12T17:08:01.697Z,26.83
2022-10-12T17:10:29.697Z,28.20
2022-10-12T17:12:57.631Z,29.60
2022-10-12T17:15:25.564Z,25.33
2022-10-12T17:17:54.099Z,30.13
2022-10-12T17:20:22.053Z,25.03
2022-10-12T17:22:51.441Z,33.67
2022-10-12T17:25:19.438Z,31.47
2022-10-12T17:27:47.346Z,35.93
2022-10-12T17:30:15.362Z,34.27
2022-10-12T17:32:43.831Z,34.50
2022-10-12T17:35:11.937Z,33.17
2022-10-12T17:37:39.921Z,30.03
2022-10-12T17:40:10.847Z,33.35
2022-10-12T17:42:38.827Z,30.87
2022-10-12T17:45:07.697Z,32.33
2022-10-12T17:47:35.715Z,29.53
2022-10-12T17:50:03.859Z,29.45
2022-10-12T17:52:31.823Z,29.75
2022-10-12T17:55:01.107Z,35.57
2022-10-12T17:57:30.412Z,31.20
2022-10-12T17:59:58.354Z,34.37
2022-10-12T18:02:26.359Z,29.67
2022-10-12T18:04:54.278Z,29.70
2022-10-12T18:07:22.245Z,26.33
2022-10-12T18:09:50.233Z,31.37
2022-10-12T18:12:18.541Z,26.13
2022-10-12T18:14:48.141Z,32.43
2022-10-12T18:17:16.075Z,31.50
2022-10-12T18:19:45.815Z,31.93
2022-10-12T18:22:13.802Z,36.50
2022-10-12T18:24:42.081Z,36.73
2022-10-12T18:27:10.221Z,48.10
2022-10-12T18:29:38.209Z,47.13
2022-10-12T18:32:08.219Z,45.33
2022-10-12T18:34:36.833Z,43.10
2022-10-12T18:37:05.059Z,46.43
2022-10-12T18:39:33.117Z,47.20
2022-10-12T18:42:01.122Z,56.80
2022-10-12T18:44:29.060Z,58.93
2022-10-12T18:46:57.026Z,56.37
2022-10-12T18:49:26.364Z,53.80
2022-10-12T18:51:54.346Z,64.20
2022-10-12T18:54:22.436Z,57.77
2022-10-12T18:56:50.426Z,61.20
2022-10-12T18:59:19.385Z,50.37
2022-10-12T19:01:48.173Z,53.20
2022-10-12T19:04:16.657Z,49.50
2022-10-12T19:06:46.051Z,57.47
2022-10-12T19:09:14.755Z,57.13
2022-10-12T19:11:42.746Z,49.83
2022-10-12T19:14:14.771Z,46.43
2022-10-12T19:16:43.478Z,51.93
2022-10-12T19:19:20.540Z,51.43
2022-10-12T19:21:51.450Z,51.63
2022-10-12T19:24:20.769Z,48.00
2022-10-12T19:26:49.572Z,49.07
2022-10-12T19:29:17.570Z,45.97
2022-10-12T19:31:47.639Z,44.80
2022-10-12T19:34:18.137Z,49.23
2022-10-12T19:36:46.546Z,49.43
2022-10-12T19:39:17.630Z,52.73
2022-10-12T19:41:46.251Z,59.73
2022-10-12T19:44:14.778Z,64.10
2022-10-12T19:46:47.261Z,61.27
2022-10-12T19:49:15.989Z,67.60
2022-10-12T19:51:45.033Z,63.67
2022-10-12T19:54:15.650Z,66.67
2022-10-12T19:56:43.603Z,74.90
2022-10-12T19:59:11.680Z,75.07
2022-10-12T20:01:40.919Z,72.13
2022-10-12T20:04:12.020Z,79.10
2022-10-12T20:06:40.354Z,72.83
2022-10-12T20:09:09.754Z,72.63
2022-10-12T20:11:39.319Z,72.40
2022-10-12T20:14:07.627Z,64.73
2022-10-12T20:16:35.714Z,63.63
2022-10-12T20:19:04.395Z,59.87
2022-10-12T20:21:32.516Z,59.23
2022-10-12T20:24:00.539Z,61.77
2022-10-12T20:26:28.901Z,64.57
2022-10-12T20:28:58.264Z,55.07
2022-10-12T20:31:28.009Z,63.07
2022-10-12T20:33:57.858Z,57.43
2022-10-12T20:36:28.910Z,65.13
2022-10-12T20:38:58.324Z,65.33
2022-10-12T20:41:27.555Z,65.10
2022-10-12T20:43:58.185Z,56.93
2022-10-12T20:46:26.555Z,58.57
2022-10-12T20:48:58.630Z,60.83
2022-10-12T20:51:28.815Z,54.87
2022-10-12T20:53:59.075Z,54.83
2022-10-12T20:56:27.401Z,73.13
2022-10-12T20:58:56.214Z,72.93
2022-10-12T21:01:26.527Z,77.23
2022-10-12T21:03:55.295Z,80.67
2022-10-12T21:06:23.923Z,78.57
2022-10-12T21:08:53.952Z,72.80
2022-10-12T21:11:22.558Z,71.70
2022-10-12T21:13:50.855Z,81.27
2022-10-12T21:16:18.880Z,79.97
2022-10-12T21:18:48.259Z,88.40
2022-10-12T21:21:18.018Z,81.53
2022-10-12T21:23:51.523Z,139.17
2022-10-12T21:26:22.204Z,126.33
2022-10-12T21:28:50.301Z,115.60
2022-10-12T21:31:18.845Z,110.97
2022-10-12T21:33:48.383Z,106.23
2022-10-12T21:36:18.431Z,92.53
2022-10-12T21:38:47.034Z,93.57
2022-10-12T21:41:20.300Z,88.53
2022-10-12T21:43:49.402Z,93.17
2022-10-12T21:46:19.407Z,92.70
2022-10-12T21:48:49.545Z,96.03
2022-10-12T21:51:18.439Z,89.27
2022-10-12T21:53:46.572Z,101.43
2022-10-12T21:56:17.464Z,102.00
2022-10-12T21:58:46.028Z,100.00
2022-10-12T22:01:15.937Z,87.97
2022-10-12T22:03:44.757Z,92.17
2022-10-12T22:06:18.535Z,84.00
2022-10-12T22:08:51.268Z,84.00
2022-10-12T22:11:19.579Z,90.77
2022-10-12T22:13:47.550Z,92.60
2022-10-12T22:16:17.486Z,86.10
2022-10-12T22:18:45.959Z,103.80
2022-10-12T22:21:17.412Z,96.57
2022-10-12T22:23:46.219Z,91.73
2022-10-12T22:26:16.383Z,82.57
2022-10-12T22:28:44.807Z,94.37
2022-10-12T22:31:15.285Z,89.07
2022-10-12T22:33:43.512Z,90.50
2022-10-12T22:36:13.370Z,95.17
2022-10-12T22:38:42.672Z,83.47
2022-10-12T22:41:13.006Z,82.47
2022-10-12T22:43:41.465Z,82.13
2022-10-12T22:46:09.417Z,86.57
2022-10-12T22:48:38.180Z,90.57
2022-10-12T22:51:07.364Z,73.50
2022-10-12T22:53:36.582Z,90.37
2022-10-12T22:56:08.452Z,84.30
2022-10-12T22:58:36.897Z,79.70
2022-10-12T23:01:06.672Z,80.40
2022-10-12T23:03:35.858Z,73.00
2022-10-12T23:06:04.462Z,66.13
2022-10-12T23:08:32.689Z,78.13
2022-10-12T23:11:05.784Z,73.77
2022-10-12T23:13:34.433Z,78.10
2022-10-12T23:16:03.331Z,72.53
2022-10-12T23:18:31.289Z,75.37
2022-10-12T23:20:59.211Z,75.63
2022-10-12T23:23:27.140Z,75.30
2022-10-12T23:26:00.269Z,79.10
2022-10-12T23:28:30.070Z,75.17
2022-10-12T23:30:58.110Z,85.60
2022-10-12T23:33:26.179Z,75.30
2022-10-12T23:35:58.203Z,67.37
2022-10-12T23:38:26.801Z,73.97
2022-10-12T23:40:54.728Z,72.07
2022-10-12T23:43:22.734Z,74.37
2022-10-12T23:45:52.354Z,70.97
2022-10-12T23:48:20.480Z,75.70
2022-10-12T23:50:48.437Z,74.97
2022-10-12T23:53:16.416Z,77.33
2022-10-12T23:55:44.362Z,68.97
2022-10-12T23:58:12.316Z,75.93
